sensor_id;sensor_type;location;lat;lon;timestamp;pressure;altitude;pressure_sealevel;temperature;humidity
78839;BME280;68405;47.190;27.558;2024-02-04T00:01:59;99441.07;;;6.59;57.55
78839;BME280;68405;47.190;27.558;2024-02-04T00:04:30;99441.73;;;6.60;57.55
78839;BME280;68405;47.190;27.558;2024-02-04T00:07:02;99448.48;;;6.60;57.78
78839;BME280;68405;47.190;27.558;2024-02-04T00:09:34;99451.77;;;6.59;57.67
78839;BME280;68405;47.190;27.558;2024-02-04T00:12:06;99454.25;;;6.57;58.05
78839;BME280;68405;47.190;27.558;2024-02-04T00:14:37;99456.66;;;6.57;57.78
78839;BME280;68405;47.190;27.558;2024-02-04T00:17:09;99453.87;;;6.57;57.87
78839;BME280;68405;47.190;27.558;2024-02-04T00:19:40;99455.63;;;6.57;57.85
78839;BME280;68405;47.190;27.558;2024-02-04T00:22:11;99461.98;;;6.58;57.81
78839;BME280;68405;47.190;27.558;2024-02-04T00:24:43;99465.53;;;6.61;57.77
78839;BME280;68405;47.190;27.558;2024-02-04T00:27:14;99467.20;;;6.62;57.69
78839;BME280;68405;47.190;27.558;2024-02-04T00:29:46;99459.39;;;6.65;57.66
78839;BME280;68405;47.190;27.558;2024-02-04T00:32:17;99460.48;;;6.69;57.73
78839;BME280;68405;47.190;27.558;2024-02-04T00:34:49;99466.34;;;6.69;57.84
78839;BME280;68405;47.190;27.558;2024-02-04T00:37:20;99463.08;;;6.69;57.72
78839;BME280;68405;47.190;27.558;2024-02-04T00:39:52;99466.70;;;6.69;57.78
78839;BME280;68405;47.190;27.558;2024-02-04T00:42:23;99465.34;;;6.68;57.83
78839;BME280;68405;47.190;27.558;2024-02-04T00:44:54;99466.97;;;6.66;57.71
78839;BME280;68405;47.190;27.558;2024-02-04T00:47:26;99468.84;;;6.66;57.73
78839;BME280;68405;47.190;27.558;2024-02-04T00:49:57;99467.45;;;6.67;57.82
78839;BME280;68405;47.190;27.558;2024-02-04T00:52:29;99469.79;;;6.70;57.73
78839;BME280;68405;47.190;27.558;2024-02-04T00:55:00;99472.10;;;6.74;57.63
78839;BME280;68405;47.190;27.558;2024-02-04T00:57:32;99471.59;;;6.73;57.64
78839;BME280;68405;47.190;27.558;2024-02-04T01:00:04;99475.05;;;6.73;57.74
78839;BME280;68405;47.190;27.558;2024-02-04T01:02:35;99475.55;;;6.74;57.71
78839;BME280;68405;47.190;27.558;2024-02-04T01:05:08;99472.61;;;6.74;57.54
78839;BME280;68405;47.190;27.558;2024-02-04T01:07:40;99468.52;;;6.72;57.68
78839;BME280;68405;47.190;27.558;2024-02-04T01:10:12;99466.06;;;6.73;57.59
78839;BME280;68405;47.190;27.558;2024-02-04T01:12:43;99463.19;;;6.71;57.68
78839;BME280;68405;47.190;27.558;2024-02-04T01:15:15;99458.47;;;6.67;57.71
78839;BME280;68405;47.190;27.558;2024-02-04T01:17:46;99460.80;;;6.63;57.84
78839;BME280;68405;47.190;27.558;2024-02-04T01:20:18;99457.80;;;6.59;57.94
78839;BME280;68405;47.190;27.558;2024-02-04T01:22:49;99457.14;;;6.58;57.90
78839;BME280;68405;47.190;27.558;2024-02-04T01:25:21;99449.08;;;6.56;57.94
78839;BME280;68405;47.190;27.558;2024-02-04T01:27:53;99450.23;;;6.52;58.19
78839;BME280;68405;47.190;27.558;2024-02-04T01:30:24;99451.70;;;6.48;58.06
78839;BME280;68405;47.190;27.558;2024-02-04T01:32:56;99448.63;;;6.46;58.14
78839;BME280;68405;47.190;27.558;2024-02-04T01:35:27;99447.13;;;6.44;58.34
78839;BME280;68405;47.190;27.558;2024-02-04T01:37:59;99445.23;;;6.44;58.31
78839;BME280;68405;47.190;27.558;2024-02-04T01:40:30;99441.98;;;6.43;58.53
78839;BME280;68405;47.190;27.558;2024-02-04T01:43:02;99451.34;;;6.42;58.78
78839;BME280;68405;47.190;27.558;2024-02-04T01:45:41;99449.63;;;6.40;58.79
78839;BME280;68405;47.190;27.558;2024-02-04T01:48:16;99451.27;;;6.37;58.83
78839;BME280;68405;47.190;27.558;2024-02-04T01:50:52;99450.05;;;6.37;58.60
78839;BME280;68405;47.190;27.558;2024-02-04T01:53:35;99449.76;;;6.36;58.76
78839;BME280;68405;47.190;27.558;2024-02-04T01:56:09;99447.27;;;6.31;58.70
78839;BME280;68405;47.190;27.558;2024-02-04T01:58:43;99443.77;;;6.26;58.91
78839;BME280;68405;47.190;27.558;2024-02-04T02:01:20;99443.93;;;6.19;58.85
78839;BME280;68405;47.190;27.558;2024-02-04T02:03:55;99444.45;;;6.12;59.12
78839;BME280;68405;47.190;27.558;2024-02-04T02:06:28;99446.33;;;6.06;59.36
78839;BME280;68405;47.190;27.558;2024-02-04T02:09:05;99446.73;;;6.02;59.52
78839;BME280;68405;47.190;27.558;2024-02-04T02:11:44;99447.45;;;6.02;59.56
78839;BME280;68405;47.190;27.558;2024-02-04T02:14:23;99448.12;;;6.02;59.59
78839;BME280;68405;47.190;27.558;2024-02-04T02:17:02;99450.73;;;6.01;59.55
78839;BME280;68405;47.190;27.558;2024-02-04T02:19:46;99451.48;;;5.97;59.48
78839;BME280;68405;47.190;27.558;2024-02-04T02:22:39;99456.45;;;5.90;59.63
78839;BME280;68405;47.190;27.558;2024-02-04T02:25:15;99460.79;;;5.81;59.47
78839;BME280;68405;47.190;27.558;2024-02-04T02:27:51;99464.05;;;5.73;59.62
78839;BME280;68405;47.190;27.558;2024-02-04T02:30:22;99460.80;;;5.64;60.25
78839;BME280;68405;47.190;27.558;2024-02-04T02:32:54;99466.81;;;5.57;60.14
78839;BME280;68405;47.190;27.558;2024-02-04T02:35:26;99467.44;;;5.52;59.84
78839;BME280;68405;47.190;27.558;2024-02-04T02:38:02;99467.85;;;5.48;60.47
78839;BME280;68405;47.190;27.558;2024-02-04T02:40:39;99465.80;;;5.47;60.36
78839;BME280;68405;47.190;27.558;2024-02-04T02:43:15;99465.69;;;5.44;60.66
78839;BME280;68405;47.190;27.558;2024-02-04T02:45:47;99463.34;;;5.42;60.20
78839;BME280;68405;47.190;27.558;2024-02-04T02:48:19;99465.75;;;5.41;60.42
78839;BME280;68405;47.190;27.558;2024-02-04T02:50:51;99473.89;;;5.39;60.23
78839;BME280;68405;47.190;27.558;2024-02-04T02:53:23;99471.48;;;5.39;60.45
78839;BME280;68405;47.190;27.558;2024-02-04T02:55:55;99472.50;;;5.40;60.61
78839;BME280;68405;47.190;27.558;2024-02-04T02:58:26;99470.20;;;5.43;60.71
78839;BME280;68405;47.190;27.558;2024-02-04T03:00:57;99466.82;;;5.48;60.71
78839;BME280;68405;47.190;27.558;2024-02-04T03:03:29;99467.55;;;5.55;60.65
78839;BME280;68405;47.190;27.558;2024-02-04T03:06:01;99470.02;;;5.61;60.99
78839;BME280;68405;47.190;27.558;2024-02-04T03:08:32;99478.14;;;5.67;60.78
78839;BME280;68405;47.190;27.558;2024-02-04T03:11:04;99478.16;;;5.74;60.89
78839;BME280;68405;47.190;27.558;2024-02-04T03:13:37;99477.88;;;5.80;60.93
78839;BME280;68405;47.190;27.558;2024-02-04T03:16:12;99477.23;;;5.87;60.61
78839;BME280;68405;47.190;27.558;2024-02-04T03:18:45;99477.14;;;5.90;60.60
78839;BME280;68405;47.190;27.558;2024-02-04T03:21:17;99479.95;;;5.96;60.47
78839;BME280;68405;47.190;27.558;2024-02-04T03:23:49;99478.96;;;6.03;60.42
78839;BME280;68405;47.190;27.558;2024-02-04T03:26:21;99478.85;;;6.08;60.35
78839;BME280;68405;47.190;27.558;2024-02-04T03:28:52;99478.55;;;6.14;60.33
78839;BME280;68405;47.190;27.558;2024-02-04T03:31:24;99472.55;;;6.20;60.35
78839;BME280;68405;47.190;27.558;2024-02-04T03:33:55;99468.98;;;6.24;60.11
78839;BME280;68405;47.190;27.558;2024-02-04T03:36:27;99465.49;;;6.27;60.10
78839;BME280;68405;47.190;27.558;2024-02-04T03:38:58;99470.58;;;6.30;59.97
78839;BME280;68405;47.190;27.558;2024-02-04T03:41:30;99471.05;;;6.32;60.03
78839;BME280;68405;47.190;27.558;2024-02-04T03:44:01;99474.32;;;6.33;59.97
78839;BME280;68405;47.190;27.558;2024-02-04T03:46:33;99473.07;;;6.34;59.85
78839;BME280;68405;47.190;27.558;2024-02-04T03:49:05;99472.89;;;6.35;60.07
78839;BME280;68405;47.190;27.558;2024-02-04T03:51:36;99470.27;;;6.36;60.06
78839;BME280;68405;47.190;27.558;2024-02-04T03:54:07;99468.17;;;6.36;60.02
78839;BME280;68405;47.190;27.558;2024-02-04T03:56:39;99473.88;;;6.36;60.00
78839;BME280;68405;47.190;27.558;2024-02-04T03:59:11;99474.21;;;6.36;59.97
78839;BME280;68405;47.190;27.558;2024-02-04T04:01:48;99480.73;;;6.38;60.14
78839;BME280;68405;47.190;27.558;2024-02-04T04:04:24;99476.68;;;6.42;60.20
78839;BME280;68405;47.190;27.558;2024-02-04T04:06:56;99469.52;;;6.46;60.63
78839;BME280;68405;47.190;27.558;2024-02-04T04:09:32;99471.73;;;6.47;60.94
78839;BME280;68405;47.190;27.558;2024-02-04T04:12:10;99465.55;;;6.46;60.70
78839;BME280;68405;47.190;27.558;2024-02-04T04:14:41;99463.85;;;6.44;60.71
78839;BME280;68405;47.190;27.558;2024-02-04T04:17:16;99454.97;;;6.41;60.74
78839;BME280;68405;47.190;27.558;2024-02-04T04:19:54;99453.93;;;6.41;60.73
78839;BME280;68405;47.190;27.558;2024-02-04T04:22:38;99434.88;;;6.37;60.69
78839;BME280;68405;47.190;27.558;2024-02-04T04:25:12;99438.27;;;6.33;60.49
78839;BME280;68405;47.190;27.558;2024-02-04T04:27:51;99441.88;;;6.26;60.34
78839;BME280;68405;47.190;27.558;2024-02-04T04:30:29;99437.20;;;6.20;60.22
78839;BME280;68405;47.190;27.558;2024-02-04T04:33:05;99438.01;;;6.15;60.24
78839;BME280;68405;47.190;27.558;2024-02-04T04:35:41;99441.06;;;6.09;60.69
78839;BME280;68405;47.190;27.558;2024-02-04T04:38:15;99444.67;;;6.09;60.96
78839;BME280;68405;47.190;27.558;2024-02-04T04:40:50;99445.03;;;6.09;60.93
78839;BME280;68405;47.190;27.558;2024-02-04T04:43:26;99451.20;;;6.10;60.99
78839;BME280;68405;47.190;27.558;2024-02-04T04:46:01;99447.89;;;6.12;60.88
78839;BME280;68405;47.190;27.558;2024-02-04T04:48:38;99457.77;;;6.18;60.97
78839;BME280;68405;47.190;27.558;2024-02-04T04:51:19;99459.70;;;6.23;60.75
78839;BME280;68405;47.190;27.558;2024-02-04T04:53:57;99461.45;;;6.29;60.70
78839;BME280;68405;47.190;27.558;2024-02-04T04:56:43;99463.55;;;6.36;60.70
78839;BME280;68405;47.190;27.558;2024-02-04T04:59:17;99462.38;;;6.41;60.28
78839;BME280;68405;47.190;27.558;2024-02-04T05:01:49;99460.51;;;6.47;60.36
78839;BME280;68405;47.190;27.558;2024-02-04T05:04:25;99461.59;;;6.53;60.30
78839;BME280;68405;47.190;27.558;2024-02-04T05:06:56;99457.46;;;6.59;60.17
78839;BME280;68405;47.190;27.558;2024-02-04T05:09:28;99459.89;;;6.65;59.89
78839;BME280;68405;47.190;27.558;2024-02-04T05:11:59;99462.67;;;6.71;59.92
78839;BME280;68405;47.190;27.558;2024-02-04T05:14:31;99465.37;;;6.73;59.85
78839;BME280;68405;47.190;27.558;2024-02-04T05:17:03;99463.67;;;6.73;59.73
78839;BME280;68405;47.190;27.558;2024-02-04T05:19:34;99468.39;;;6.70;59.87
78839;BME280;68405;47.190;27.558;2024-02-04T05:22:06;99465.89;;;6.67;59.95
78839;BME280;68405;47.190;27.558;2024-02-04T05:24:37;99464.35;;;6.66;59.84
78839;BME280;68405;47.190;27.558;2024-02-04T05:27:08;99460.43;;;6.64;59.84
78839;BME280;68405;47.190;27.558;2024-02-04T05:29:41;99464.05;;;6.64;59.96
78839;BME280;68405;47.190;27.558;2024-02-04T05:32:13;99460.27;;;6.64;59.72
78839;BME280;68405;47.190;27.558;2024-02-04T05:34:44;99452.30;;;6.65;59.80
78839;BME280;68405;47.190;27.558;2024-02-04T05:37:16;99452.86;;;6.63;59.76
78839;BME280;68405;47.190;27.558;2024-02-04T05:39:47;99454.49;;;6.60;59.73
78839;BME280;68405;47.190;27.558;2024-02-04T05:42:19;99455.56;;;6.59;59.74
78839;BME280;68405;47.190;27.558;2024-02-04T05:44:50;99459.05;;;6.57;59.88
78839;BME280;68405;47.190;27.558;2024-02-04T05:47:22;99460.39;;;6.59;59.85
78839;BME280;68405;47.190;27.558;2024-02-04T05:49:53;99461.17;;;6.62;59.81
78839;BME280;68405;47.190;27.558;2024-02-04T05:52:24;99468.47;;;6.68;59.67
78839;BME280;68405;47.190;27.558;2024-02-04T05:55:00;99464.66;;;6.68;59.57
78839;BME280;68405;47.190;27.558;2024-02-04T05:57:38;99466.29;;;6.65;59.71
78839;BME280;68405;47.190;27.558;2024-02-04T06:00:17;99473.45;;;6.61;59.67
78839;BME280;68405;47.190;27.558;2024-02-04T06:02:54;99478.54;;;6.58;59.77
78839;BME280;68405;47.190;27.558;2024-02-04T06:05:26;99477.33;;;6.58;59.72
78839;BME280;68405;47.190;27.558;2024-02-04T06:08:01;99475.31;;;6.56;59.90
78839;BME280;68405;47.190;27.558;2024-02-04T06:10:39;99474.96;;;6.56;59.89
78839;BME280;68405;47.190;27.558;2024-02-04T06:13:19;99471.28;;;6.58;59.88
78839;BME280;68405;47.190;27.558;2024-02-04T06:15:56;99459.45;;;6.61;59.79
78839;BME280;68405;47.190;27.558;2024-02-04T06:18:32;99458.30;;;6.67;59.72
78839;BME280;68405;47.190;27.558;2024-02-04T06:21:12;99446.61;;;6.72;59.49
78839;BME280;68405;47.190;27.558;2024-02-04T06:23:51;99442.72;;;6.75;59.50
78839;BME280;68405;47.190;27.558;2024-02-04T06:26:29;99441.05;;;6.80;59.37
78839;BME280;68405;47.190;27.558;2024-02-04T06:29:09;99440.79;;;6.84;59.15
78839;BME280;68405;47.190;27.558;2024-02-04T06:31:49;99435.44;;;6.90;59.03
78839;BME280;68405;47.190;27.558;2024-02-04T06:34:23;99438.03;;;6.96;59.14
78839;BME280;68405;47.190;27.558;2024-02-04T06:37:02;99440.02;;;7.00;59.00
78839;BME280;68405;47.190;27.558;2024-02-04T06:39:37;99442.45;;;7.00;58.75
78839;BME280;68405;47.190;27.558;2024-02-04T06:42:18;99435.90;;;6.92;58.59
78839;BME280;68405;47.190;27.558;2024-02-04T06:44:57;99434.80;;;6.88;58.66
78839;BME280;68405;47.190;27.558;2024-02-04T06:47:42;99436.66;;;6.83;58.75
78839;BME280;68405;47.190;27.558;2024-02-04T06:50:16;99427.13;;;6.84;58.84
78839;BME280;68405;47.190;27.558;2024-02-04T06:52:56;99424.92;;;6.89;58.55
78839;BME280;68405;47.190;27.558;2024-02-04T06:55:33;99427.67;;;6.97;58.44
78839;BME280;68405;47.190;27.558;2024-02-04T06:58:08;99426.26;;;7.04;58.61
78839;BME280;68405;47.190;27.558;2024-02-04T07:00:43;99423.59;;;7.13;58.48
78839;BME280;68405;47.190;27.558;2024-02-04T07:03:20;99425.55;;;7.23;58.13
78839;BME280;68405;47.190;27.558;2024-02-04T07:05:55;99430.20;;;7.36;58.07
78839;BME280;68405;47.190;27.558;2024-02-04T07:08:35;99432.79;;;7.61;58.12
78839;BME280;68405;47.190;27.558;2024-02-04T07:11:17;99428.80;;;7.84;57.54
78839;BME280;68405;47.190;27.558;2024-02-04T07:13:59;99439.80;;;8.08;57.15
78839;BME280;68405;47.190;27.558;2024-02-04T07:16:34;99439.88;;;8.50;57.40
78839;BME280;68405;47.190;27.558;2024-02-04T07:19:08;99436.00;;;9.08;55.87
78839;BME280;68405;47.190;27.558;2024-02-04T07:21:47;99424.63;;;9.31;54.60
78839;BME280;68405;47.190;27.558;2024-02-04T07:24:32;99424.66;;;9.39;54.47
78839;BME280;68405;47.190;27.558;2024-02-04T07:27:12;99433.12;;;9.54;54.63
78839;BME280;68405;47.190;27.558;2024-02-04T07:29:50;99438.95;;;9.70;54.22
78839;BME280;68405;47.190;27.558;2024-02-04T07:32:33;99440.56;;;9.82;53.74
78839;BME280;68405;47.190;27.558;2024-02-04T07:35:15;99433.83;;;9.95;53.82
78839;BME280;68405;47.190;27.558;2024-02-04T07:37:50;99429.95;;;9.87;52.88
78839;BME280;68405;47.190;27.558;2024-02-04T07:40:27;99429.31;;;9.91;53.80
78839;BME280;68405;47.190;27.558;2024-02-04T07:43:09;99433.40;;;9.79;52.96
78839;BME280;68405;47.190;27.558;2024-02-04T07:45:51;99429.86;;;9.85;53.07
78839;BME280;68405;47.190;27.558;2024-02-04T07:55:53;99430.55;;;9.90;52.59
78839;BME280;68405;47.190;27.558;2024-02-04T08:10:51;99427.84;;;11.31;50.59
78839;BME280;68405;47.190;27.558;2024-02-04T08:13:24;99436.70;;;11.62;50.66
78839;BME280;68405;47.190;27.558;2024-02-04T08:16:03;99429.52;;;12.79;49.88
78839;BME280;68405;47.190;27.558;2024-02-04T08:18:37;99427.05;;;14.89;46.25
78839;BME280;68405;47.190;27.558;2024-02-04T08:23:58;99427.27;;;18.72;42.99
78839;BME280;68405;47.190;27.558;2024-02-04T08:26:30;99433.19;;;20.54;43.07
78839;BME280;68405;47.190;27.558;2024-02-04T08:29:08;99435.88;;;20.41;41.35
78839;BME280;68405;47.190;27.558;2024-02-04T08:34:32;99436.88;;;20.42;39.22
78839;BME280;68405;47.190;27.558;2024-02-04T08:37:05;99425.21;;;22.10;37.15
78839;BME280;68405;47.190;27.558;2024-02-04T08:39:43;99427.94;;;24.15;37.24
78839;BME280;68405;47.190;27.558;2024-02-04T08:42:17;99430.54;;;25.01;31.67
78839;BME280;68405;47.190;27.558;2024-02-04T08:44:49;99439.30;;;24.83;32.43
78839;BME280;68405;47.190;27.558;2024-02-04T08:47:23;99441.21;;;23.82;32.02
78839;BME280;68405;47.190;27.558;2024-02-04T08:53:43;99448.07;;;21.42;32.75
78839;BME280;68405;47.190;27.558;2024-02-04T08:56:16;99449.09;;;21.15;32.97
78839;BME280;68405;47.190;27.558;2024-02-04T08:58:53;99449.15;;;21.64;32.41
78839;BME280;68405;47.190;27.558;2024-02-04T09:01:30;99446.29;;;22.75;30.08
78839;BME280;68405;47.190;27.558;2024-02-04T09:04:07;99437.31;;;22.73;26.98
78839;BME280;68405;47.190;27.558;2024-02-04T09:06:39;99442.77;;;23.34;28.65
78839;BME280;68405;47.190;27.558;2024-02-04T09:09:42;99438.95;;;23.96;27.61
78839;BME280;68405;47.190;27.558;2024-02-04T09:12:20;99434.94;;;24.65;27.55
78839;BME280;68405;47.190;27.558;2024-02-04T09:14:53;99438.21;;;24.81;25.90
78839;BME280;68405;47.190;27.558;2024-02-04T09:17:25;99443.39;;;26.94;25.83
78839;BME280;68405;47.190;27.558;2024-02-04T09:19:57;99442.45;;;28.44;23.16
78839;BME280;68405;47.190;27.558;2024-02-04T09:22:35;99436.07;;;28.24;22.74
78839;BME280;68405;47.190;27.558;2024-02-04T09:25:11;99430.00;;;28.23;22.46
78839;BME280;68405;47.190;27.558;2024-02-04T09:27:49;99433.91;;;27.52;22.16
78839;BME280;68405;47.190;27.558;2024-02-04T09:30:22;99430.92;;;26.78;22.14
78839;BME280;68405;47.190;27.558;2024-02-04T09:32:56;99428.70;;;26.63;23.68
78839;BME280;68405;47.190;27.558;2024-02-04T09:35:28;99419.98;;;26.06;22.58
78839;BME280;68405;47.190;27.558;2024-02-04T09:38:13;99425.41;;;25.02;23.12
78839;BME280;68405;47.190;27.558;2024-02-04T09:41:17;99411.39;;;24.49;23.74
78839;BME280;68405;47.190;27.558;2024-02-04T09:43:57;99407.16;;;23.64;24.13
78839;BME280;68405;47.190;27.558;2024-02-04T09:46:46;99397.33;;;24.10;23.71
78839;BME280;68405;47.190;27.558;2024-02-04T09:49:35;99394.88;;;24.48;23.83
78839;BME280;68405;47.190;27.558;2024-02-04T09:52:39;99405.52;;;24.76;23.08
78839;BME280;68405;47.190;27.558;2024-02-04T09:55:19;99406.23;;;24.32;23.53
78839;BME280;68405;47.190;27.558;2024-02-04T09:58:09;99403.52;;;24.25;23.75
78839;BME280;68405;47.190;27.558;2024-02-04T10:01:28;99394.89;;;25.62;23.09
78839;BME280;68405;47.190;27.558;2024-02-04T10:04:09;99389.33;;;27.51;22.25
78839;BME280;68405;47.190;27.558;2024-02-04T10:07:13;99383.27;;;28.51;21.21
78839;BME280;68405;47.190;27.558;2024-02-04T10:09:59;99368.79;;;28.96;19.75
78839;BME280;68405;47.190;27.558;2024-02-04T10:15:36;99358.02;;;30.70;18.70
78839;BME280;68405;47.190;27.558;2024-02-04T10:18:48;99348.19;;;31.22;18.02
78839;BME280;68405;47.190;27.558;2024-02-04T10:24:07;99345.84;;;32.91;17.33
78839;BME280;68405;47.190;27.558;2024-02-04T10:26:42;99342.73;;;32.22;16.82
78839;BME280;68405;47.190;27.558;2024-02-04T10:29:21;99347.60;;;29.58;18.27
78839;BME280;68405;47.190;27.558;2024-02-04T10:31:57;99349.50;;;27.59;19.60
78839;BME280;68405;47.190;27.558;2024-02-04T10:34:32;99355.25;;;25.72;20.40
78839;BME280;68405;47.190;27.558;2024-02-04T10:37:28;99361.27;;;24.05;21.50
78839;BME280;68405;47.190;27.558;2024-02-04T10:40:07;99353.41;;;22.78;22.74
78839;BME280;68405;47.190;27.558;2024-02-04T10:42:46;99354.72;;;21.51;23.76
78839;BME280;68405;47.190;27.558;2024-02-04T10:45:32;99358.95;;;20.81;24.60
78839;BME280;68405;47.190;27.558;2024-02-04T10:48:06;99356.75;;;20.32;25.26
78839;BME280;68405;47.190;27.558;2024-02-04T10:50:40;99356.27;;;19.64;25.95
78839;BME280;68405;47.190;27.558;2024-02-04T10:53:30;99354.61;;;19.08;27.11
78839;BME280;68405;47.190;27.558;2024-02-04T10:56:18;99348.08;;;18.38;27.87
78839;BME280;68405;47.190;27.558;2024-02-04T10:59:01;99345.11;;;17.77;28.02
78839;BME280;68405;47.190;27.558;2024-02-04T11:02:11;99351.34;;;17.07;29.10
78839;BME280;68405;47.190;27.558;2024-02-04T11:04:44;99354.17;;;16.55;30.44
78839;BME280;68405;47.190;27.558;2024-02-04T11:07:39;99351.88;;;16.07;31.26
78839;BME280;68405;47.190;27.558;2024-02-04T11:10:14;99351.79;;;15.59;31.56
78839;BME280;68405;47.190;27.558;2024-02-04T11:13:11;99361.79;;;15.20;32.32
78839;BME280;68405;47.190;27.558;2024-02-04T11:19:27;99358.58;;;14.05;35.73
78839;BME280;68405;47.190;27.558;2024-02-04T11:26:10;99377.09;;;13.49;37.94
78839;BME280;68405;47.190;27.558;2024-02-04T11:29:20;99379.70;;;13.35;39.30
78839;BME280;68405;47.190;27.558;2024-02-04T11:36:03;99379.66;;;13.16;38.94
78839;BME280;68405;47.190;27.558;2024-02-04T11:41:48;99371.03;;;12.40;40.54
78839;BME280;68405;47.190;27.558;2024-02-04T11:44:37;99357.71;;;12.17;42.05
78839;BME280;68405;47.190;27.558;2024-02-04T11:47:27;99348.82;;;12.03;44.27
78839;BME280;68405;47.190;27.558;2024-02-04T11:50:09;99348.17;;;12.06;44.53
78839;BME280;68405;47.190;27.558;2024-02-04T11:53:15;99342.82;;;12.26;45.19
78839;BME280;68405;47.190;27.558;2024-02-04T11:56:24;99326.54;;;13.47;44.17
78839;BME280;68405;47.190;27.558;2024-02-04T11:59:14;99319.09;;;15.39;40.88
78839;BME280;68405;47.190;27.558;2024-02-04T12:02:04;99314.78;;;16.87;38.53
78839;BME280;68405;47.190;27.558;2024-02-04T12:04:57;99307.63;;;17.25;37.25
78839;BME280;68405;47.190;27.558;2024-02-04T12:07:36;99306.31;;;17.06;37.34
78839;BME280;68405;47.190;27.558;2024-02-04T12:10:14;99311.92;;;17.31;37.01
78839;BME280;68405;47.190;27.558;2024-02-04T12:13:03;99297.06;;;16.87;37.22
78839;BME280;68405;47.190;27.558;2024-02-04T12:15:44;99271.05;;;16.98;36.95
78839;BME280;68405;47.190;27.558;2024-02-04T12:18:21;99264.68;;;17.12;36.59
78839;BME280;68405;47.190;27.558;2024-02-04T12:21:03;99274.36;;;16.81;36.67
78839;BME280;68405;47.190;27.558;2024-02-04T12:23:42;99272.20;;;16.92;36.40
78839;BME280;68405;47.190;27.558;2024-02-04T12:26:22;99277.63;;;16.87;36.46
78839;BME280;68405;47.190;27.558;2024-02-04T12:28:58;99271.09;;;16.85;36.37
78839;BME280;68405;47.190;27.558;2024-02-04T12:31:35;99273.05;;;16.66;36.51
78839;BME280;68405;47.190;27.558;2024-02-04T12:34:22;99276.08;;;16.51;36.54
78839;BME280;68405;47.190;27.558;2024-02-04T12:37:04;99271.92;;;16.37;36.83
78839;BME280;68405;47.190;27.558;2024-02-04T12:39:42;99275.57;;;16.25;36.94
78839;BME280;68405;47.190;27.558;2024-02-04T12:42:46;99273.73;;;16.08;37.60
78839;BME280;68405;47.190;27.558;2024-02-04T12:45:45;99272.55;;;15.99;36.90
78839;BME280;68405;47.190;27.558;2024-02-04T12:48:54;99284.86;;;15.95;37.25
78839;BME280;68405;47.190;27.558;2024-02-04T12:52:03;99290.47;;;15.58;37.98
78839;BME280;68405;47.190;27.558;2024-02-04T12:55:12;99284.27;;;15.12;39.35
78839;BME280;68405;47.190;27.558;2024-02-04T12:58:14;99282.30;;;15.01;39.18
78839;BME280;68405;47.190;27.558;2024-02-04T13:00:58;99280.80;;;14.92;39.19
78839;BME280;68405;47.190;27.558;2024-02-04T13:03:42;99275.48;;;14.79;39.84
78839;BME280;68405;47.190;27.558;2024-02-04T13:06:25;99267.75;;;14.85;39.36
78839;BME280;68405;47.190;27.558;2024-02-04T13:09:05;99265.09;;;14.91;39.46
78839;BME280;68405;47.190;27.558;2024-02-04T13:12:05;99262.45;;;15.06;39.46
78839;BME280;68405;47.190;27.558;2024-02-04T13:14:48;99256.80;;;15.01;39.70
78839;BME280;68405;47.190;27.558;2024-02-04T13:17:25;99251.80;;;14.97;39.25
78839;BME280;68405;47.190;27.558;2024-02-04T13:20:03;99252.38;;;14.93;39.41
78839;BME280;68405;47.190;27.558;2024-02-04T13:22:39;99254.95;;;14.94;39.12
78839;BME280;68405;47.190;27.558;2024-02-04T13:28:20;99265.64;;;14.44;39.59
78839;BME280;68405;47.190;27.558;2024-02-04T13:30:55;99266.80;;;14.28;40.15
78839;BME280;68405;47.190;27.558;2024-02-04T13:34:13;99264.67;;;14.02;40.95
78839;BME280;68405;47.190;27.558;2024-02-04T13:36:51;99256.91;;;13.79;40.90
78839;BME280;68405;47.190;27.558;2024-02-04T13:39:55;99255.34;;;13.58;41.24
78839;BME280;68405;47.190;27.558;2024-02-04T13:42:31;99262.27;;;13.33;41.73
78839;BME280;68405;47.190;27.558;2024-02-04T13:45:09;99255.40;;;13.15;42.41
78839;BME280;68405;47.190;27.558;2024-02-04T13:47:47;99253.16;;;13.05;42.68
78839;BME280;68405;47.190;27.558;2024-02-04T13:50:30;99248.38;;;13.00;41.16
78839;BME280;68405;47.190;27.558;2024-02-04T13:53:13;99249.10;;;12.93;41.80
78839;BME280;68405;47.190;27.558;2024-02-04T13:55:46;99255.13;;;12.82;41.56
78839;BME280;68405;47.190;27.558;2024-02-04T13:58:22;99261.62;;;12.65;42.97
78839;BME280;68405;47.190;27.558;2024-02-04T14:03:45;99258.76;;;12.32;44.81
78839;BME280;68405;47.190;27.558;2024-02-04T14:06:38;99267.60;;;12.19;43.48
78839;BME280;68405;47.190;27.558;2024-02-04T14:58:39;99318.65;;;10.07;49.56
78839;BME280;68405;47.190;27.558;2024-02-04T15:01:12;99304.32;;;9.97;49.53
78839;BME280;68405;47.190;27.558;2024-02-04T15:03:47;99297.50;;;9.90;48.49
78839;BME280;68405;47.190;27.558;2024-02-04T15:06:22;99292.27;;;9.82;49.32
78839;BME280;68405;47.190;27.558;2024-02-04T15:08:56;99297.88;;;9.77;48.26
78839;BME280;68405;47.190;27.558;2024-02-04T15:11:29;99298.83;;;9.70;50.51
78839;BME280;68405;47.190;27.558;2024-02-04T15:14:06;99310.20;;;9.63;48.81
78839;BME280;68405;47.190;27.558;2024-02-04T15:16:54;99311.34;;;9.56;52.03
78839;BME280;68405;47.190;27.558;2024-02-04T15:19:42;99314.24;;;9.48;48.61
78839;BME280;68405;47.190;27.558;2024-02-04T15:22:15;99305.95;;;9.43;50.66
78839;BME280;68405;47.190;27.558;2024-02-04T15:24:48;99300.05;;;9.39;48.72
78839;BME280;68405;47.190;27.558;2024-02-04T15:27:20;99292.61;;;9.34;49.43
78839;BME280;68405;47.190;27.558;2024-02-04T15:29:52;99293.70;;;9.29;49.79
78839;BME280;68405;47.190;27.558;2024-02-04T15:32:35;99289.73;;;9.24;52.07
78839;BME280;68405;47.190;27.558;2024-02-04T15:35:24;99296.04;;;9.17;50.05
78839;BME280;68405;47.190;27.558;2024-02-04T15:38:09;99299.41;;;9.10;50.48
78839;BME280;68405;47.190;27.558;2024-02-04T15:40:44;99304.40;;;9.01;49.37